Time;durP1;ratioP1;P1;durP2;ratioP2;P2;SDS_P1;SDS_P2;PMS_P1;PMS_P2;Temp;Humidity;BMP_temperature;BMP_pressure;BME280_temperature;BME280_humidity;BME280_pressure;Samples;Min_cycle;Max_cycle;Signal;HPM_P1;HPM_P2
2022/03/26 00:04:32;;;;;;;14.55;7.35;;;;;;;;;;10367259;28;20528;-46
2022/03/26 00:09:32;;;;;;;16.15;6.72;;;;;;;;;;10358146;28;20038;-46
2022/03/26 00:14:33;;;;;;;15.30;7.22;;;;;;;;;;10366418;28;20384;-46
2022/03/26 00:19:34;;;;;;;18.00;7.40;;;;;;;;;;10366664;28;20034;-46
2022/03/26 00:24:34;;;;;;;15.50;7.85;;;;;;;;;;10358503;28;20030;-46
2022/03/26 00:29:35;;;;;;;14.50;7.32;;;;;;;;;;10365401;28;20083;-72
2022/03/26 00:34:36;;;;;;;16.33;7.50;;;;;;;;;;10366375;28;20049;-46
2022/03/26 00:39:39;;;;;;;11.48;6.68;;;;;;;;;;10352845;28;20177;-46
2022/03/26 00:44:39;;;;;;;24.15;8.07;;;;;;;;;;10358331;28;20038;-46
2022/03/26 00:49:40;;;;;;;15.45;7.10;;;;;;;;;;10369526;28;20026;-45
2022/03/26 00:54:40;;;;;;;15.70;7.05;;;;;;;;;;10374004;28;20045;-46
2022/03/26 00:59:41;;;;;;;11.23;6.85;;;;;;;;;;10373454;28;20485;-46
2022/03/26 01:04:41;;;;;;;14.10;7.40;;;;;;;;;;10374006;28;20153;-46
2022/03/26 01:09:42;;;;;;;13.50;7.20;;;;;;;;;;10373673;28;20080;-60
2022/03/26 01:14:43;;;;;;;13.20;6.45;;;;;;;;;;10373130;28;20109;-46
2022/03/26 01:19:44;;;;;;;12.32;7.40;;;;;;;;;;10372672;28;21097;-47
2022/03/26 01:24:45;;;;;;;13.73;7.25;;;;;;;;;;10373377;28;20046;-46
2022/03/26 01:29:45;;;;;;;14.23;7.28;;;;;;;;;;10372841;28;20034;-46
2022/03/26 01:34:46;;;;;;;10.82;6.30;;;;;;;;;;10372789;28;20034;-45
2022/03/26 01:39:46;;;;;;;10.18;6.78;;;;;;;;;;10366691;28;20030;-46
2022/03/26 01:44:47;;;;;;;11.18;6.68;;;;;;;;;;10371965;28;20025;-46
2022/03/26 01:49:48;;;;;;;18.75;6.45;;;;;;;;;;10364913;28;20042;-46
2022/03/26 01:54:48;;;;;;;14.10;6.47;;;;;;;;;;10354306;28;20031;-71
2022/03/26 01:59:50;;;;;;;15.88;6.90;;;;;;;;;;10354345;28;20477;-69
2022/03/26 02:04:51;;;;;;;10.40;6.38;;;;;;;;;;10369573;28;20030;-62
2022/03/26 02:09:52;;;;;;;10.98;6.55;;;;;;;;;;10370246;28;20034;-63
2022/03/26 02:14:53;;;;;;;13.32;7.00;;;;;;;;;;10370923;28;20041;-62
2022/03/26 02:19:59;;;;;;;13.23;7.10;;;;;;;;;;10353590;28;20037;-73
2022/03/26 02:24:59;;;;;;;12.20;6.85;;;;;;;;;;10370758;28;20026;-71
2022/03/26 02:30:01;;;;;;;14.98;6.95;;;;;;;;;;10370374;28;20503;-46
2022/03/26 02:35:01;;;;;;;10.82;5.68;;;;;;;;;;10369159;28;20501;-46
2022/03/26 02:40:06;;;;;;;12.80;6.30;;;;;;;;;;10370222;28;20083;-45
2022/03/26 02:45:08;;;;;;;17.13;6.20;;;;;;;;;;10365428;28;20374;-46
2022/03/26 02:50:09;;;;;;;12.93;6.18;;;;;;;;;;10363333;28;20061;-45
2022/03/26 02:55:09;;;;;;;8.07;5.85;;;;;;;;;;10368333;28;20132;-46
2022/03/26 03:00:13;;;;;;;14.35;6.10;;;;;;;;;;10362793;28;20030;-46
2022/03/26 03:05:14;;;;;;;10.73;6.10;;;;;;;;;;10367519;28;20092;-46
2022/03/26 03:10:18;;;;;;;11.98;6.30;;;;;;;;;;10366359;28;20057;-46
2022/03/26 03:15:20;;;;;;;9.05;5.93;;;;;;;;;;10368037;28;20033;-46
2022/03/26 03:20:21;;;;;;;12.77;6.28;;;;;;;;;;10369056;28;20060;-46
2022/03/26 03:25:22;;;;;;;10.10;5.88;;;;;;;;;;10365203;28;20088;-46
2022/03/26 03:30:22;;;;;;;10.02;5.88;;;;;;;;;;10368514;28;20085;-46
2022/03/26 03:35:23;;;;;;;11.63;5.93;;;;;;;;;;10368385;28;20120;-46
2022/03/26 03:40:24;;;;;;;11.27;5.28;;;;;;;;;;10367044;28;20033;-46
2022/03/26 03:45:25;;;;;;;8.68;5.80;;;;;;;;;;10367853;28;20042;-46
2022/03/26 03:50:26;;;;;;;11.10;6.13;;;;;;;;;;10367961;28;20030;-46
2022/03/26 03:55:28;;;;;;;9.98;6.32;;;;;;;;;;10367166;28;20046;-45
2022/03/26 04:00:28;;;;;;;12.88;6.13;;;;;;;;;;10360419;28;20568;-46
2022/03/26 04:05:29;;;;;;;7.93;5.18;;;;;;;;;;10360302;28;20091;-46
2022/03/26 04:10:30;;;;;;;10.10;5.68;;;;;;;;;;10366635;28;20145;-46
2022/03/26 04:15:30;;;;;;;11.00;5.88;;;;;;;;;;10367247;28;20038;-46
2022/03/26 04:20:31;;;;;;;10.02;5.80;;;;;;;;;;10366643;28;20125;-46
2022/03/26 04:25:32;;;;;;;9.10;5.30;;;;;;;;;;10361766;28;20089;-46
2022/03/26 04:30:32;;;;;;;7.28;5.63;;;;;;;;;;10362034;28;20477;-46
2022/03/26 04:35:34;;;;;;;11.35;5.90;;;;;;;;;;10365434;28;20034;-46
2022/03/26 04:40:35;;;;;;;11.23;5.63;;;;;;;;;;10366304;28;20046;-45
2022/03/26 04:45:36;;;;;;;8.05;5.38;;;;;;;;;;10365634;28;20508;-46
2022/03/26 04:50:36;;;;;;;12.45;6.43;;;;;;;;;;10360458;28;20168;-46
2022/03/26 04:55:37;;;;;;;6.47;4.95;;;;;;;;;;10361461;28;20050;-45
2022/03/26 05:00:37;;;;;;;12.88;6.00;;;;;;;;;;10365434;28;20033;-46
2022/03/26 05:05:38;;;;;;;9.75;5.57;;;;;;;;;;10358660;28;20053;-46
2022/03/26 05:10:39;;;;;;;9.60;6.03;;;;;;;;;;10359070;28;20029;-46
2022/03/26 05:15:39;;;;;;;8.45;5.75;;;;;;;;;;10365223;28;20285;-45
2022/03/26 05:20:40;;;;;;;8.80;5.80;;;;;;;;;;10365814;28;20045;-46
2022/03/26 05:25:41;;;;;;;6.97;5.50;;;;;;;;;;10348051;28;20481;-45
2022/03/26 05:30:42;;;;;;;10.75;6.05;;;;;;;;;;10365149;28;20485;-46
2022/03/26 05:35:43;;;;;;;8.88;6.00;;;;;;;;;;10359766;28;20508;-46
2022/03/26 05:40:43;;;;;;;7.95;5.45;;;;;;;;;;10372562;28;20108;-46
2022/03/26 05:45:44;;;;;;;8.27;5.05;;;;;;;;;;10371815;28;20433;-46
2022/03/26 05:50:46;;;;;;;7.85;5.20;;;;;;;;;;10372243;28;20170;-46
2022/03/26 05:55:46;;;;;;;11.15;5.32;;;;;;;;;;10370273;28;20180;-46
2022/03/26 06:00:49;;;;;;;11.52;5.35;;;;;;;;;;10370688;28;20034;-46
2022/03/26 06:05:50;;;;;;;8.20;5.28;;;;;;;;;;10371914;28;20518;-46
2022/03/26 06:10:50;;;;;;;14.18;5.28;;;;;;;;;;10363392;28;20041;-45
2022/03/26 06:15:51;;;;;;;8.13;5.38;;;;;;;;;;10361831;28;20041;-43
2022/03/26 06:20:51;;;;;;;8.95;5.47;;;;;;;;;;10370973;28;20041;-48
2022/03/26 06:25:52;;;;;;;14.05;6.10;;;;;;;;;;10371799;28;20116;-46
2022/03/26 06:30:53;;;;;;;12.38;6.07;;;;;;;;;;10370572;28;20046;-46
2022/03/26 06:35:54;;;;;;;10.77;5.65;;;;;;;;;;10369669;28;20038;-46
2022/03/26 06:40:54;;;;;;;10.10;5.63;;;;;;;;;;10361283;28;20029;-46
2022/03/26 06:45:55;;;;;;;12.27;6.65;;;;;;;;;;10368926;28;20037;-46
2022/03/26 06:50:55;;;;;;;14.90;6.43;;;;;;;;;;10367649;28;20032;-45
2022/03/26 06:55:57;;;;;;;17.35;6.38;;;;;;;;;;10365750;28;20049;-46
2022/03/26 07:00:58;;;;;;;8.02;5.85;;;;;;;;;;10367700;28;20115;-46
2022/03/26 07:05:59;;;;;;;11.40;5.97;;;;;;;;;;10369496;28;20032;-47
2022/03/26 07:11:00;;;;;;;9.00;5.82;;;;;;;;;;10369585;28;20041;-46
2022/03/26 07:16:01;;;;;;;12.75;5.72;;;;;;;;;;10356126;28;20248;-46
2022/03/26 07:21:01;;;;;;;14.23;6.82;;;;;;;;;;10365803;28;20184;-64
2022/03/26 07:26:03;;;;;;;13.73;7.18;;;;;;;;;;10368559;28;20034;-49
2022/03/26 07:31:06;;;;;;;19.38;9.02;;;;;;;;;;10367622;28;20096;-46
2022/03/26 07:36:07;;;;;;;20.73;7.90;;;;;;;;;;10368145;28;20481;-47
2022/03/26 07:41:08;;;;;;;21.30;8.48;;;;;;;;;;10366109;28;20030;-46
2022/03/26 07:46:08;;;;;;;18.67;8.50;;;;;;;;;;10367148;28;20512;-47
2022/03/26 07:51:09;;;;;;;16.00;9.00;;;;;;;;;;10367007;28;20061;-48
2022/03/26 07:56:10;;;;;;;18.33;9.27;;;;;;;;;;10366718;28;20054;-45
2022/03/26 08:01:10;;;;;;;14.30;8.23;;;;;;;;;;10366268;28;20057;-45
2022/03/26 08:06:11;;;;;;;20.88;8.57;;;;;;;;;;10367865;28;20358;-46
2022/03/26 08:11:12;;;;;;;18.70;8.90;;;;;;;;;;10366696;28;21261;-48
2022/03/26 08:16:12;;;;;;;19.23;8.13;;;;;;;;;;10350635;28;20042;-46
2022/03/26 08:21:15;;;;;;;11.68;7.93;;;;;;;;;;10356819;28;20038;-46
2022/03/26 08:26:26;;;;;;;12.65;7.72;;;;;;;;;;10360360;28;20063;-45
2022/03/26 08:31:30;;;;;;;14.98;7.85;;;;;;;;;;10364560;28;20056;-56
2022/03/26 08:36:31;;;;;;;19.67;8.43;;;;;;;;;;10360249;28;20136;-45
2022/03/26 08:41:31;;;;;;;16.25;8.05;;;;;;;;;;10364684;28;20037;-46
2022/03/26 08:46:34;;;;;;;13.75;7.97;;;;;;;;;;10366040;28;20026;-45
2022/03/26 08:51:34;;;;;;;16.55;8.20;;;;;;;;;;10366209;28;20648;-45
2022/03/26 08:56:35;;;;;;;14.90;7.95;;;;;;;;;;10365900;28;20058;-46
2022/03/26 09:01:36;;;;;;;14.15;7.07;;;;;;;;;;10365343;28;20064;-49
2022/03/26 09:06:37;;;;;;;13.07;7.10;;;;;;;;;;10365637;28;20034;-46
2022/03/26 09:11:38;;;;;;;15.48;7.68;;;;;;;;;;10361452;28;20435;-47
2022/03/26 09:16:38;;;;;;;9.63;6.22;;;;;;;;;;10372357;28;20616;-47
2022/03/26 09:21:39;;;;;;;12.55;7.20;;;;;;;;;;10372880;28;20026;-45
2022/03/26 09:26:40;;;;;;;9.80;5.90;;;;;;;;;;10360030;28;20799;-45
2022/03/26 09:31:40;;;;;;;9.52;6.57;;;;;;;;;;10371235;28;20547;-45
2022/03/26 09:36:41;;;;;;;9.98;5.95;;;;;;;;;;10370608;28;20034;-44
2022/03/26 09:41:43;;;;;;;9.05;6.53;;;;;;;;;;10370966;28;20045;-43
2022/03/26 09:46:44;;;;;;;9.30;5.80;;;;;;;;;;10352373;28;20029;-50
2022/03/26 09:51:44;;;;;;;8.75;5.75;;;;;;;;;;10370034;28;20536;-47
2022/03/26 09:56:45;;;;;;;13.48;6.32;;;;;;;;;;10366203;28;20173;-43
2022/03/26 10:01:46;;;;;;;10.23;6.20;;;;;;;;;;10370020;28;21439;-48
2022/03/26 10:06:57;;;;;;;11.82;5.90;;;;;;;;;;10367312;28;20030;-47
2022/03/26 10:12:11;;;;;;;7.82;5.63;;;;;;;;;;10367991;28;20032;-48
2022/03/26 10:17:17;;;;;;;9.98;5.45;;;;;;;;;;10364799;28;20037;-50
2022/03/26 10:22:33;;;;;;;11.00;6.13;;;;;;;;;;10340488;28;20606;-51
2022/03/26 10:27:48;;;;;;;15.52;6.38;;;;;;;;;;10368872;28;20034;-46
2022/03/26 10:32:49;;;;;;;11.77;6.07;;;;;;;;;;10368816;28;20480;-51
2022/03/26 10:38:02;;;;;;;21.02;6.15;;;;;;;;;;10370379;28;20037;-45
2022/03/26 10:43:09;;;;;;;9.93;6.35;;;;;;;;;;10369186;28;20026;-46
2022/03/26 10:48:10;;;;;;;13.52;5.90;;;;;;;;;;10370646;28;20034;-45
2022/03/26 10:53:14;;;;;;;13.73;6.40;;;;;;;;;;10368993;28;20393;-63
2022/03/26 10:58:15;;;;;;;8.65;5.95;;;;;;;;;;10367207;28;20037;-63
2022/03/26 11:03:17;;;;;;;16.98;6.50;;;;;;;;;;10370513;28;20426;-63
2022/03/26 11:08:19;;;;;;;11.57;6.20;;;;;;;;;;10369343;28;20034;-63
2022/03/26 11:13:20;;;;;;;13.82;6.10;;;;;;;;;;10370183;28;20022;-62
2022/03/26 11:18:41;;;;;;;10.57;6.93;;;;;;;;;;10368553;28;20382;-63
2022/03/26 11:24:19;;;;;;;13.15;6.45;;;;;;;;;;10368336;28;20046;-59
2022/03/26 11:29:35;;;;;;;11.27;6.05;;;;;;;;;;10354097;28;20394;-57
2022/03/26 11:34:37;;;;;;;9.88;5.90;;;;;;;;;;10368741;28;20113;-63
2022/03/26 11:39:49;;;;;;;10.93;6.13;;;;;;;;;;10368416;28;20123;-63
2022/03/26 11:55:47;;;;;;;20.45;6.45;;;;;;;;;;10368447;28;20058;-63
2022/03/26 12:00:55;;;;;;;;;;;;;;;;;;10365890;28;20033;-63
2022/03/26 12:11:25;;;;;;;15.00;6.28;;;;;;;;;;10367121;28;20482;-63
2022/03/26 12:16:50;;;;;;;14.52;7.15;;;;;;;;;;10367942;28;20042;-62
2022/03/26 12:21:50;;;;;;;13.77;6.85;;;;;;;;;;10367048;28;20504;-63
2022/03/26 12:26:51;;;;;;;17.17;7.22;;;;;;;;;;10367630;28;20038;-63
2022/03/26 12:31:52;;;;;;;17.05;7.32;;;;;;;;;;10365306;28;20551;-63
2022/03/26 12:37:03;;;;;;;19.67;7.05;;;;;;;;;;10367758;28;20030;-61
2022/03/26 12:42:04;;;;;;;16.70;7.57;;;;;;;;;;10349159;28;20029;-61
2022/03/26 12:47:04;;;;;;;16.55;6.88;;;;;;;;;;10354812;28;20030;-62
2022/03/26 12:52:06;;;;;;;16.70;7.13;;;;;;;;;;10373855;28;22008;-49
2022/03/26 12:57:07;;;;;;;13.13;6.40;;;;;;;;;;10374051;28;20386;-46
2022/03/26 13:02:10;;;;;;;14.15;6.40;;;;;;;;;;10365523;28;20042;-47
2022/03/26 13:07:10;;;;;;;13.20;6.25;;;;;;;;;;10343537;28;20057;-47
2022/03/26 13:12:28;;;;;;;20.45;6.30;;;;;;;;;;10369328;28;20049;-46
2022/03/26 13:17:28;;;;;;;14.13;6.78;;;;;;;;;;10369727;28;20551;-46
2022/03/26 13:22:29;;;;;;;20.83;6.82;;;;;;;;;;10372961;28;20087;-46
2022/03/26 13:27:30;;;;;;;12.73;6.40;;;;;;;;;;10373928;28;20034;-55
2022/03/26 13:32:31;;;;;;;20.42;6.63;;;;;;;;;;10370983;28;20469;-47
2022/03/26 13:37:32;;;;;;;22.20;7.30;;;;;;;;;;10371567;28;20038;-58
2022/03/26 13:42:39;;;;;;;13.95;5.88;;;;;;;;;;10364515;28;20036;-46
2022/03/26 13:47:40;;;;;;;10.80;5.97;;;;;;;;;;10372554;28;20045;-61
2022/03/26 13:52:44;;;;;;;18.38;6.47;;;;;;;;;;10372902;28;20025;-64
2022/03/26 13:57:48;;;;;;;15.18;7.13;;;;;;;;;;10372427;28;20065;-46
2022/03/26 14:02:51;;;;;;;18.27;7.25;;;;;;;;;;10372254;28;20613;-46
2022/03/26 14:08:00;;;;;;;20.52;6.80;;;;;;;;;;10372677;28;20041;-46
2022/03/26 14:13:02;;;;;;;17.92;6.97;;;;;;;;;;10372487;28;20405;-46
2022/03/26 14:18:05;;;;;;;17.98;6.68;;;;;;;;;;10372617;28;20096;-47
2022/03/26 14:23:07;;;;;;;18.60;6.85;;;;;;;;;;10372112;28;20060;-47
2022/03/26 14:28:11;;;;;;;23.70;7.15;;;;;;;;;;10372156;28;20034;-46
2022/03/26 14:33:13;;;;;;;25.35;7.32;;;;;;;;;;10371627;28;20099;-46
2022/03/26 14:38:15;;;;;;;22.00;6.78;;;;;;;;;;10371796;28;20041;-47
2022/03/26 14:43:16;;;;;;;25.45;7.57;;;;;;;;;;10371324;28;20034;-45
2022/03/26 14:48:17;;;;;;;29.92;8.43;;;;;;;;;;10371240;28;20038;-46
2022/03/26 14:53:18;;;;;;;29.27;7.95;;;;;;;;;;10370593;28;20018;-46
2022/03/26 14:58:18;;;;;;;33.13;8.18;;;;;;;;;;10370855;28;20080;-46
2022/03/26 15:03:19;;;;;;;21.23;8.25;;;;;;;;;;10370810;28;20145;-52
2022/03/26 15:08:20;;;;;;;19.95;8.07;;;;;;;;;;10369606;28;20504;-47
2022/03/26 15:13:20;;;;;;;31.85;9.00;;;;;;;;;;10370445;28;20026;-47
2022/03/26 15:18:21;;;;;;;40.35;9.63;;;;;;;;;;10368432;28;20038;-47
2022/03/26 15:23:22;;;;;;;52.28;10.25;;;;;;;;;;10368195;28;20026;-46
2022/03/26 15:28:22;;;;;;;31.27;9.30;;;;;;;;;;10368937;28;20038;-46
2022/03/26 15:33:23;;;;;;;30.83;9.88;;;;;;;;;;10368972;28;20037;-47
2022/03/26 15:38:23;;;;;;;29.20;9.70;;;;;;;;;;10369182;28;20088;-45
2022/03/26 15:43:24;;;;;;;30.50;9.82;;;;;;;;;;10368268;28;20509;-46
2022/03/26 15:48:24;;;;;;;23.52;9.98;;;;;;;;;;10367894;28;20030;-46
2022/03/26 15:53:25;;;;;;;31.25;9.60;;;;;;;;;;10364825;28;20103;-47
2022/03/26 15:58:26;;;;;;;22.45;8.88;;;;;;;;;;10366935;28;20038;-45
2022/03/26 16:03:26;;;;;;;31.00;9.57;;;;;;;;;;10368779;28;20034;-45
2022/03/26 16:08:27;;;;;;;26.38;9.85;;;;;;;;;;10367933;28;20037;-45
2022/03/26 16:13:27;;;;;;;15.35;9.00;;;;;;;;;;10368328;28;20022;-46
2022/03/26 16:18:28;;;;;;;19.85;9.90;;;;;;;;;;10367820;28;20099;-46
2022/03/26 16:23:29;;;;;;;25.33;11.18;;;;;;;;;;10368105;28;20354;-46
2022/03/26 16:28:30;;;;;;;29.65;10.93;;;;;;;;;;10367619;28;20041;-46
2022/03/26 16:33:30;;;;;;;17.05;9.57;;;;;;;;;;10367980;28;20159;-47
2022/03/26 16:38:31;;;;;;;17.65;9.55;;;;;;;;;;10367448;28;20030;-45
2022/03/26 16:43:32;;;;;;;26.48;11.30;;;;;;;;;;10367740;28;20485;-45
2022/03/26 16:48:32;;;;;;;30.85;10.18;;;;;;;;;;10367189;28;20478;-45
2022/03/26 16:53:34;;;;;;;15.75;8.98;;;;;;;;;;10367450;28;20037;-47
2022/03/26 16:58:35;;;;;;;20.42;8.85;;;;;;;;;;10367289;28;20084;-46
2022/03/26 17:03:36;;;;;;;22.75;9.55;;;;;;;;;;10366841;28;20054;-45
2022/03/26 17:08:39;;;;;;;17.98;8.82;;;;;;;;;;10367213;28;20095;-46
2022/03/26 17:13:39;;;;;;;20.50;9.43;;;;;;;;;;10366613;28;20026;-46
2022/03/26 17:18:42;;;;;;;17.20;9.30;;;;;;;;;;10365019;28;20049;-45
2022/03/26 17:23:42;;;;;;;22.77;8.85;;;;;;;;;;10364727;28;20105;-45
2022/03/26 17:28:43;;;;;;;15.05;9.25;;;;;;;;;;10365588;28;20033;-46
2022/03/26 17:33:44;;;;;;;15.40;9.02;;;;;;;;;;10371590;28;20519;-46
2022/03/26 17:38:44;;;;;;;15.55;9.13;;;;;;;;;;10371828;28;20597;-45
2022/03/26 17:43:45;;;;;;;22.92;9.23;;;;;;;;;;10368792;28;20045;-45
2022/03/26 17:48:46;;;;;;;16.27;8.60;;;;;;;;;;10370639;28;20385;-46
2022/03/26 17:53:47;;;;;;;14.18;8.48;;;;;;;;;;10369542;28;20034;-46
2022/03/26 17:58:48;;;;;;;23.02;8.52;;;;;;;;;;10365120;28;20053;-50
2022/03/26 18:03:49;;;;;;;16.58;8.00;;;;;;;;;;10369287;28;20048;-45
2022/03/26 18:08:51;;;;;;;18.27;8.15;;;;;;;;;;10367915;28;20030;-46
2022/03/26 18:13:53;;;;;;;14.80;8.40;;;;;;;;;;10385296;28;20072;-45
2022/03/26 18:18:53;;;;;;;18.33;7.85;;;;;;;;;;10360918;28;20069;-45
2022/03/26 18:23:54;;;;;;;16.23;8.38;;;;;;;;;;10372455;28;20030;-46
2022/03/26 18:28:55;;;;;;;14.90;7.68;;;;;;;;;;10371442;28;20034;-46
2022/03/26 18:33:56;;;;;;;11.70;7.38;;;;;;;;;;10369766;28;20029;-45
2022/03/26 18:38:57;;;;;;;15.80;8.25;;;;;;;;;;10370165;28;20473;-46
2022/03/26 18:43:57;;;;;;;14.18;8.30;;;;;;;;;;10369702;28;20080;-48
2022/03/26 18:48:59;;;;;;;12.63;7.72;;;;;;;;;;10371105;28;20038;-46
2022/03/26 18:54:03;;;;;;;18.00;8.25;;;;;;;;;;10376129;28;20127;-61
2022/03/26 18:59:05;;;;;;;21.33;8.80;;;;;;;;;;10362799;28;20044;-46
2022/03/26 19:04:06;;;;;;;13.68;7.75;;;;;;;;;;10369140;28;20033;-46
2022/03/26 19:09:06;;;;;;;24.02;7.95;;;;;;;;;;10367592;28;20038;-46
2022/03/26 19:14:07;;;;;;;13.90;8.27;;;;;;;;;;10367990;28;20091;-53
2022/03/26 19:19:07;;;;;;;13.95;8.40;;;;;;;;;;10370193;28;20037;-48
2022/03/26 19:24:08;;;;;;;17.70;7.63;;;;;;;;;;10368065;28;20498;-46
2022/03/26 19:29:55;;;;;;;16.15;8.88;;;;;;;;;;10369517;28;20026;-45
2022/03/26 19:34:31;;;;;;;16.05;8.20;;;;;;;;;;10338760;28;20050;-62
2022/03/26 19:39:32;;;;;;;37.47;9.95;;;;;;;;;;10368122;28;20030;-45
2022/03/26 19:44:34;;;;;;;37.83;10.48;;;;;;;;;;10363549;28;20121;-54
2022/03/26 19:49:34;;;;;;;30.48;9.25;;;;;;;;;;10355823;28;20065;-49
2022/03/26 19:54:37;;;;;;;29.77;9.80;;;;;;;;;;10389597;28;20542;-58
2022/03/26 19:59:38;;;;;;;30.80;9.65;;;;;;;;;;10363617;28;20489;-50
2022/03/26 20:04:39;;;;;;;21.98;10.32;;;;;;;;;;10354784;28;20033;-57
2022/03/26 20:09:43;;;;;;;19.58;8.02;;;;;;;;;;10367407;28;20048;-64
2022/03/26 20:14:43;;;;;;;19.73;9.27;;;;;;;;;;10367695;28;20042;-55
2022/03/26 20:19:44;;;;;;;36.85;10.05;;;;;;;;;;10370632;28;20042;-59
2022/03/26 20:24:45;;;;;;;24.05;8.98;;;;;;;;;;10367029;28;20037;-58
2022/03/26 20:29:46;;;;;;;19.42;9.10;;;;;;;;;;10366820;28;20034;-67
2022/03/26 20:34:47;;;;;;;25.85;10.38;;;;;;;;;;10366714;28;20044;-53
2022/03/26 20:39:47;;;;;;;27.88;10.20;;;;;;;;;;10366987;28;20050;-56
2022/03/26 20:44:48;;;;;;;24.27;9.27;;;;;;;;;;10364904;28;20034;-45
2022/03/26 20:49:48;;;;;;;27.60;9.70;;;;;;;;;;10366989;28;20029;-49
2022/03/26 20:54:49;;;;;;;29.67;10.27;;;;;;;;;;10366136;28;20458;-68
2022/03/26 20:59:50;;;;;;;29.85;10.27;;;;;;;;;;10362933;28;20505;-46
2022/03/26 21:04:50;;;;;;;22.98;9.75;;;;;;;;;;10364138;28;20088;-46
2022/03/26 21:09:51;;;;;;;23.98;9.25;;;;;;;;;;10370201;28;20029;-46
2022/03/26 21:14:52;;;;;;;31.02;10.07;;;;;;;;;;10368877;28;20352;-46
2022/03/26 21:19:52;;;;;;;24.80;9.93;;;;;;;;;;10370512;28;20422;-63
2022/03/26 21:30:13;;;;;;;26.52;10.73;;;;;;;;;;10374433;28;20026;-46
2022/03/26 21:35:13;;;;;;;25.90;10.10;;;;;;;;;;10374297;28;20038;-45
2022/03/26 21:40:15;;;;;;;20.67;10.02;;;;;;;;;;10373575;28;20037;-45
2022/03/26 21:45:16;;;;;;;18.48;9.32;;;;;;;;;;10374046;28;20421;-45
2022/03/26 21:50:18;;;;;;;32.75;10.93;;;;;;;;;;10373086;28;20034;-46
2022/03/26 21:55:20;;;;;;;30.85;11.20;;;;;;;;;;10368326;28;20050;-46
2022/03/26 22:00:20;;;;;;;29.27;11.40;;;;;;;;;;10371173;28;20036;-46
2022/03/26 22:05:21;;;;;;;30.23;10.82;;;;;;;;;;10369697;28;20026;-46
2022/03/26 22:10:22;;;;;;;30.83;11.50;;;;;;;;;;10373025;28;20729;-45
2022/03/26 22:15:23;;;;;;;32.35;10.88;;;;;;;;;;10372407;28;20064;-46
2022/03/26 22:20:24;;;;;;;27.50;10.43;;;;;;;;;;10371208;28;20370;-47
2022/03/26 22:25:25;;;;;;;22.33;10.93;;;;;;;;;;10372293;28;20052;-46
2022/03/26 22:30:25;;;;;;;23.13;11.18;;;;;;;;;;10371581;28;20045;-45
2022/03/26 22:35:27;;;;;;;31.33;11.10;;;;;;;;;;10371492;28;20033;-46
2022/03/26 22:40:28;;;;;;;30.77;11.68;;;;;;;;;;10370503;28;20482;-46
2022/03/26 22:45:31;;;;;;;32.47;11.95;;;;;;;;;;10371013;28;20034;-46
2022/03/26 22:50:33;;;;;;;42.53;12.30;;;;;;;;;;10370995;28;20029;-46
2022/03/26 22:55:35;;;;;;;21.10;11.35;;;;;;;;;;10370786;28;20049;-45
2022/03/26 23:00:35;;;;;;;32.10;11.77;;;;;;;;;;10370751;28;20622;-47
2022/03/26 23:05:36;;;;;;;25.55;11.43;;;;;;;;;;10370333;28;20113;-53
2022/03/26 23:10:37;;;;;;;24.98;11.00;;;;;;;;;;10370473;28;20481;-46
2022/03/26 23:15:38;;;;;;;27.42;11.65;;;;;;;;;;10369981;28;20029;-49
2022/03/26 23:20:38;;;;;;;29.90;11.70;;;;;;;;;;10370013;28;20105;-47
2022/03/26 23:25:39;;;;;;;25.20;11.23;;;;;;;;;;10369777;28;20037;-46
2022/03/26 23:30:40;;;;;;;22.67;10.05;;;;;;;;;;10369216;28;20109;-46
2022/03/26 23:35:40;;;;;;;24.75;10.98;;;;;;;;;;10369551;28;20045;-46
2022/03/26 23:40:41;;;;;;;26.65;10.68;;;;;;;;;;10369214;28;20046;-46
2022/03/26 23:45:41;;;;;;;25.85;10.45;;;;;;;;;;10369244;28;20409;-46
2022/03/26 23:50:42;;;;;;;26.80;10.65;;;;;;;;;;10368754;28;20424;-46
2022/03/26 23:55:43;;;;;;;27.08;10.95;;;;;;;;;;10368935;28;20053;-46
